Terminal Aerodrome Forecast
Issued by NWS

Current Version | Previous Version | Text Only | Print | Product List | Glossary On
Versions: 1 2 3 4 5 6 7 8 9 10 11 12 13 14 15 16 17 18 19 20 21 22 23
000
FTUS43 KDLH 180500 RRA
TAFBRD
TAF
KBRD 180545Z 1806/1906 08008KT P6SM OVC006
     FM181000 09003KT P6SM OVC010
     FM181500 13007KT P6SM SCT010
     FM181800 15011KT P6SM SCT015 SCT035=

USA.gov is the U.S. government's official web portal to all federal, state and local government web resources and services.